KDOV/DOV METAR and TAF weather

Enter ICAO airport designator
Station Type Date Time Source
KDOV METAR 2020/05/30 04:56 UTC NOAA

KDOV 300456Z AUTO 21012KT 10SM FEW010 SCT020 23/22 A2990 RMK AO2 SLP128 T02310224 402970215 $


Station Type Date Time Source
KDOV Decoded METAR 2020/05/30 04:56 UTC NOAA

Dover Air Force Base, DE, United States (KDOV) 39-08N 075-28W
May 30, 2020 - 12:56 AM EDT / 2020.05.30 0456 UTC
Wind: from the SSW (210 degrees) at 14 MPH (12 KT):0
Visibility: 10 mile(s):0
Sky conditions: partly cloudy
Temperature: 73.6 F (23.1 C)
Dew Point: 72.3 F (22.4 C)
Relative Humidity: 95%
Pressure (altimeter): 29.9 in. Hg (1012 hPa)
ob: KDOV 300456Z AUTO 21012KT 10SM FEW010 SCT020 23/22 A2990 RMK AO2 SLP128 T02310224 402970215
cycle: 5

Station Type Date Time Source
KDOV TAF 2020/05/30 01:29 UTC NOAA

TAF
AMD KDOV 300121Z 3001/3106 20012KT 9999 SCT070 BKN100 QNH2991INS
BECMG 3005/3006 23012KT 9999 BKN050 QNH2989INS
BECMG 3011/3012 27012KT 9999 BKN030 QNH2990INS
BECMG 3013/3014 31010KT 9999 BKN050 QNH2988INS
BECMG 3100/3101 31010G15KT 9999 SCT050 QNH2989INS
BECMG 3103/3104 31015G25KT 9999 SCT050 QNH2994INS TX28/3020Z TN20/3010Z

Example: see airport list